Time;durP1;ratioP1;P1;durP2;ratioP2;P2;SDS_P1;SDS_P2;PMS_P1;PMS_P2;Temp;Humidity;BMP_temperature;BMP_pressure;BME280_temperature;BME280_humidity;BME280_pressure;Samples;Min_cycle;Max_cycle;Signal;HPM_P1;HPM_P2
2022/08/05 00:00:16;;;;;;;5.40;4.40;;;;;;;18.83;78.15;98945.18;104654;1271;75171;-24
2022/08/05 00:02:45;;;;;;;3.90;3.30;;;;;;;18.64;78.70;98948.52;104537;1271;62796;-24
2022/08/05 00:05:20;;;;;;;5.00;3.70;;;;;;;19.08;78.44;98950.41;104606;1271;61674;-24
2022/08/05 00:08:08;;;;;;;5.50;3.70;;;;;;;19.51;76.39;98946.48;104650;1271;76529;-24
2022/08/05 00:10:57;;;;;;;6.60;4.20;;;;;;;19.42;76.27;98945.88;104741;1271;77153;-24
2022/08/05 00:14:37;;;;;;;10.10;5.30;;;;;;;18.87;78.20;98946.22;101677;1310;600225;-23
2022/08/05 00:17:05;;;;;;;8.80;6.00;;;;;;;18.45;79.53;98943.94;104670;1277;61647;-23
2022/08/05 00:19:46;;;;;;;6.50;3.90;;;;;;;18.25;81.05;98940.59;104640;1277;62955;-23
2022/08/05 00:22:28;;;;;;;5.50;4.10;;;;;;;18.81;79.76;98937.13;104606;1277;75105;-23
2022/08/05 00:24:56;;;;;;;4.80;4.30;;;;;;;19.20;78.22;98935.30;104553;1278;76064;-23
2022/08/05 00:27:24;;;;;;;4.90;4.40;;;;;;;19.19;77.88;98936.80;103498;1274;1250857;-23
2022/08/05 00:30:04;;;;;;;6.40;5.20;;;;;;;18.97;78.23;98935.20;104797;1274;62949;-23
2022/08/05 00:32:37;;;;;;;7.30;5.30;;;;;;;18.64;79.59;98936.07;104725;1275;61803;-23
2022/08/05 00:35:07;;;;;;;6.90;3.30;;;;;;;18.41;80.08;98937.19;104793;1274;72965;-23
2022/08/05 00:37:35;;;;;;;8.10;4.00;;;;;;;18.81;79.49;98932.29;104565;1274;77158;-23
2022/08/05 00:40:21;;;;;;;5.80;4.20;;;;;;;19.24;77.86;98937.46;104746;1275;75242;-23
2022/08/05 00:42:53;;;;;;;6.00;4.70;;;;;;;19.18;77.63;98935.17;104618;1275;62804;-23
2022/08/05 00:45:21;;;;;;;5.20;4.50;;;;;;;18.90;78.53;98935.66;104724;1274;61944;-23
2022/08/05 00:48:04;;;;;;;6.60;4.90;;;;;;;18.58;79.77;98937.73;104675;1275;74771;-23
2022/08/05 00:50:32;;;;;;;5.80;3.70;;;;;;;18.37;81.27;98931.93;104740;1274;75952;-23
2022/08/05 00:53:01;;;;;;;5.70;4.10;;;;;;;18.79;79.84;98932.02;104806;1274;75443;-23
2022/08/05 00:55:42;;;;;;;5.60;4.00;;;;;;;19.23;78.41;98934.65;104593;1274;61069;-23
2022/08/05 00:58:11;;;;;;;6.60;4.80;;;;;;;19.25;77.59;98936.59;104596;1275;61812;-23
2022/08/05 01:00:39;;;;;;;9.80;5.60;;;;;;;19.08;77.62;98930.52;104495;1278;75606;-23
2022/08/05 01:03:09;;;;;;;5.90;4.90;;;;;;;18.81;78.61;98929.94;104708;1275;76987;-23
2022/08/05 01:05:50;;;;;;;4.40;3.60;;;;;;;18.58;79.58;98934.08;104692;1275;75113;-23
2022/08/05 01:08:21;;;;;;;6.60;4.10;;;;;;;19.02;78.49;98934.90;104611;1277;62274;-23
2022/08/05 01:11:10;;;;;;;6.80;4.30;;;;;;;19.38;76.91;98937.13;104693;1275;63455;-23
2022/08/05 01:13:56;;;;;;;5.90;4.60;;;;;;;19.30;76.87;98943.60;104703;1277;75510;-23
2022/08/05 01:17:03;;;;;;;6.80;4.60;;;;;;;19.00;77.46;98946.01;104624;1277;76793;-23
2022/08/05 01:19:31;;;;;;;7.20;5.20;;;;;;;18.70;78.22;98948.36;104685;1277;75565;-23
2022/08/05 01:22:24;;;;;;;7.00;3.90;;;;;;;18.48;78.86;98945.91;104616;1277;62914;-25
2022/08/05 01:25:09;;;;;;;10.40;4.50;;;;;;;18.96;78.04;98945.94;104636;1278;62129;-23
2022/08/05 01:28:04;;;;;;;8.50;4.70;;;;;;;19.24;76.15;98948.40;104631;1277;75513;-23
2022/08/05 01:30:37;;;;;;;7.40;4.70;;;;;;;19.02;76.81;98950.98;104701;1277;75791;-23
2022/08/05 01:33:16;;;;;;;9.40;5.40;;;;;;;18.65;77.64;98947.15;104597;1277;74182;-23
2022/08/05 01:35:45;;;;;;;8.40;5.90;;;;;;;18.29;79.12;98947.74;104384;1277;61616;-23
2022/08/05 01:38:20;;;;;;;7.10;4.30;;;;;;;18.03;80.87;98950.75;104506;1277;62081;-23
2022/08/05 01:40:56;;;;;;;9.70;5.20;;;;;;;18.38;80.51;98944.44;104548;1277;74580;-23
2022/08/05 01:43:23;;;;;;;11.60;5.50;;;;;;;18.70;78.49;98943.58;104477;1280;77064;-23
2022/08/05 01:45:52;;;;;;;8.50;5.40;;;;;;;18.60;78.55;98942.79;104444;1278;74425;-23
2022/08/05 01:48:26;;;;;;;9.90;5.70;;;;;;;18.33;79.47;98943.92;104422;1278;61849;-23
2022/08/05 01:50:54;;;;;;;9.90;5.80;;;;;;;18.02;80.64;98943.50;104262;1277;63008;-23
2022/08/05 01:53:22;;;;;;;9.50;5.40;;;;;;;17.77;81.74;98945.61;104604;1277;75611;-23
2022/08/05 01:56:09;;;;;;;6.60;4.60;;;;;;;18.23;81.20;98948.73;104573;1277;77075;-24
2022/08/05 01:58:38;;;;;;;8.40;4.70;;;;;;;18.65;79.04;98943.29;104646;1277;74292;-24
2022/08/05 02:01:17;;;;;;;7.70;5.00;;;;;;;18.59;78.87;98944.99;104615;1277;63122;-24
2022/08/05 02:03:51;;;;;;;5.50;4.80;;;;;;;18.37;78.98;98941.35;104689;1277;61065;-23
2022/08/05 02:06:18;;;;;;;9.50;6.30;;;;;;;18.08;79.91;98935.88;104417;1278;74570;-23
2022/08/05 02:09:04;;;;;;;5.40;3.80;;;;;;;17.77;81.29;98938.21;104625;1277;77296;-24
2022/08/05 02:11:58;;;;;;;11.20;4.90;;;;;;;18.16;80.69;98938.92;104329;1277;74281;-24
2022/08/05 02:14:29;;;;;;;5.40;4.60;;;;;;;18.51;79.03;98942.23;104837;1274;63082;-24
2022/08/05 02:17:07;;;;;;;9.40;5.60;;;;;;;18.39;78.55;98942.45;104734;1275;63047;-24
2022/08/05 02:19:47;;;;;;;8.10;6.00;;;;;;;18.15;79.28;98943.57;104745;1274;74297;-23
2022/08/05 02:22:20;;;;;;;8.20;6.10;;;;;;;17.88;79.77;98947.42;104643;1274;75965;-23
2022/08/05 02:24:58;;;;;;;10.60;3.90;;;;;;;17.70;80.75;98947.92;104663;1272;75715;-23
2022/08/05 02:27:26;;;;;;;5.60;4.40;;;;;;;18.15;79.98;98946.52;104957;1274;61160;-24
2022/08/05 02:30:14;;;;;;;7.90;4.60;;;;;;;18.55;78.10;98944.05;104924;1274;63154;-24
2022/08/05 02:32:53;;;;;;;7.50;4.70;;;;;;;18.43;78.18;98944.30;104917;1274;74736;-23
2022/08/05 02:35:21;;;;;;;7.80;5.40;;;;;;;18.12;79.35;98938.30;104782;1275;75862;-24
2022/08/05 02:37:58;;;;;;;6.50;5.10;;;;;;;17.87;79.91;98942.45;104746;1274;75550;-24
2022/08/05 02:40:28;;;;;;;7.10;3.70;;;;;;;17.69;80.55;98946.74;104803;1272;63610;-23
2022/08/05 02:42:56;;;;;;;9.10;4.20;;;;;;;18.12;80.26;98945.10;104851;1274;63295;-23
2022/08/05 02:45:24;;;;;;;8.10;4.70;;;;;;;18.57;78.60;98948.41;104855;1274;75770;-24
2022/08/05 02:47:52;;;;;;;5.20;4.50;;;;;;;18.59;78.55;98948.77;104787;1272;76931;-23
2022/08/05 02:50:35;;;;;;;6.10;5.10;;;;;;;18.39;77.82;98944.00;104638;1274;75472;-24
2022/08/05 02:53:03;;;;;;;9.60;6.20;;;;;;;18.05;79.15;98940.70;104877;1273;63120;-24
2022/08/05 02:55:30;;;;;;;7.10;3.70;;;;;;;17.72;80.83;98945.95;104665;1274;61904;-24
2022/08/05 02:58:20;;;;;;;9.90;4.40;;;;;;;18.14;79.93;98942.25;104875;1274;76200;-23
2022/08/05 03:00:48;;;;;;;7.20;5.70;;;;;;;18.51;78.26;98942.95;104614;1275;76935;-24
2022/08/05 03:03:19;;;;;;;9.20;4.70;;;;;;;18.48;77.97;98943.27;104663;1274;75392;-24
2022/08/05 03:05:49;;;;;;;7.80;5.30;;;;;;;18.25;78.19;98940.77;104757;1274;62827;-24
2022/08/05 03:08:37;;;;;;;6.60;5.20;;;;;;;17.95;79.65;98945.29;105044;1271;61087;-23
2022/08/05 03:11:23;;;;;;;5.60;4.10;;;;;;;17.79;80.37;98947.63;104804;1271;75812;-25
2022/08/05 03:14:10;;;;;;;4.60;4.00;;;;;;;18.45;79.22;98941.54;104742;1274;77168;-23
2022/08/05 03:16:39;;;;;;;6.90;4.80;;;;;;;18.92;76.91;98942.99;105078;1274;75474;-24
2022/08/05 03:19:07;;;;;;;7.60;5.50;;;;;;;18.89;76.87;98946.12;104972;1274;62782;-24
2022/08/05 03:21:46;;;;;;;9.90;5.00;;;;;;;18.69;77.63;98944.41;104831;1274;61068;-24
2022/08/05 03:24:18;;;;;;;7.40;5.40;;;;;;;18.56;78.14;98945.92;104821;1274;75839;-24
2022/08/05 03:26:57;;;;;;;4.10;3.70;;;;;;;18.37;79.37;98946.98;104816;1274;76712;-24
2022/08/05 03:29:25;;;;;;;6.70;4.80;;;;;;;18.85;78.42;98948.51;104800;1274;75337;-23
2022/08/05 03:32:14;;;;;;;10.10;5.00;;;;;;;19.42;75.97;98945.33;104838;1274;63131;-24
2022/08/05 03:34:42;;;;;;;6.70;4.40;;;;;;;19.55;75.28;98948.15;104749;1274;63029;-23
2022/08/05 03:37:20;;;;;;;7.70;4.70;;;;;;;19.56;74.95;98947.70;104338;1274;75706;-23
2022/08/05 03:39:54;;;;;;;9.40;5.80;;;;;;;19.51;75.06;98952.20;104769;1274;75132;-23
2022/08/05 03:42:28;;;;;;;5.00;4.10;;;;;;;19.54;75.22;98953.88;104771;1274;75033;-24
2022/08/05 03:44:58;;;;;;;4.90;4.10;;;;;;;20.19;74.10;98956.27;104711;1274;62999;-24
2022/08/05 03:47:46;;;;;;;9.50;4.90;;;;;;;20.76;71.54;98958.44;104920;1274;62947;-24
2022/08/05 03:50:15;;;;;;;6.10;4.60;;;;;;;20.82;71.27;98953.44;104787;1274;74644;-23
2022/08/05 03:53:04;;;;;;;9.70;5.70;;;;;;;20.82;71.53;98950.63;104613;1274;74853;-23
2022/08/05 03:55:56;;;;;;;8.60;5.80;;;;;;;20.69;71.84;98946.20;104537;1274;74348;-24
2022/08/05 03:58:41;;;;;;;6.70;5.20;;;;;;;20.60;72.39;98948.98;104555;1274;62933;-24
2022/08/05 04:01:10;;;;;;;6.60;5.10;;;;;;;20.31;73.11;98952.39;104552;1274;63050;-24
2022/08/05 04:03:39;;;;;;;7.60;5.00;;;;;;;20.26;74.25;98953.73;104761;1274;75764;-24
2022/08/05 04:06:29;;;;;;;10.40;5.30;;;;;;;21.07;71.28;98954.59;104815;1274;76990;-23
2022/08/05 04:08:56;;;;;;;7.20;5.30;;;;;;;21.23;71.01;98947.79;104801;1274;73722;-23
2022/08/05 04:11:24;;;;;;;8.30;5.90;;;;;;;21.10;71.03;98948.29;104762;1274;61280;-23
2022/08/05 04:14:12;;;;;;;7.40;6.40;;;;;;;20.81;72.42;98951.34;105065;1274;61988;-24
2022/08/05 04:16:44;;;;;;;10.30;5.80;;;;;;;20.83;72.93;98949.69;105109;1272;75940;-23
2022/08/05 04:19:12;;;;;;;7.80;4.70;;;;;;;20.97;72.85;98950.55;104729;1274;75728;-23
2022/08/05 04:21:40;;;;;;;7.30;5.30;;;;;;;21.30;71.53;98952.17;105046;1274;70746;-24
2022/08/05 04:24:27;;;;;;;5.50;5.00;;;;;;;21.96;69.30;98953.23;104955;1274;61147;-24
2022/08/05 04:26:55;;;;;;;7.40;5.10;;;;;;;22.17;68.37;98950.11;105140;1272;62855;-24
2022/08/05 04:29:24;;;;;;;8.90;6.00;;;;;;;22.15;68.67;98954.84;105112;1273;75904;-23
2022/08/05 04:31:53;;;;;;;7.30;6.00;;;;;;;21.95;69.31;98946.95;105078;1272;75987;-24
2022/08/05 04:34:22;;;;;;;14.10;7.00;;;;;;;21.71;70.05;98951.29;104910;1274;75362;-24
2022/08/05 04:37:00;;;;;;;7.90;5.80;;;;;;;21.58;71.65;98951.67;105079;1274;63587;-24
2022/08/05 04:39:30;;;;;;;6.60;4.60;;;;;;;21.85;70.20;98951.27;104765;1274;61122;-23
2022/08/05 04:41:58;;;;;;;7.40;4.90;;;;;;;22.45;69.04;98947.39;105003;1272;76803;-23
2022/08/05 04:44:27;;;;;;;7.20;5.30;;;;;;;23.21;66.13;98951.05;105150;1272;75850;-23
2022/08/05 04:46:57;;;;;;;10.70;6.80;;;;;;;21.98;69.11;98953.47;105007;1274;75212;-24
2022/08/05 04:49:26;;;;;;;8.80;7.70;;;;;;;21.89;70.50;98953.65;104794;1274;62829;-24
2022/08/05 04:52:14;;;;;;;7.10;6.20;;;;;;;21.59;70.91;98956.83;104900;1274;63389;-23
2022/08/05 04:54:41;;;;;;;7.90;6.30;;;;;;;21.80;70.80;98953.73;104659;1274;75703;-24
2022/08/05 04:57:08;;;;;;;17.10;11.20;;;;;;;21.83;70.87;98952.14;104757;1274;75683;-23
2022/08/05 04:59:36;;;;;;;9.70;7.20;;;;;;;21.85;71.18;98946.20;104602;1271;75359;-24
2022/08/05 05:02:07;;;;;;;9.30;6.40;;;;;;;22.12;70.09;98944.77;105049;1272;63169;-23
2022/08/05 05:04:54;;;;;;;9.80;5.80;;;;;;;21.66;71.33;98943.64;104883;1274;62872;-23
2022/08/05 05:07:29;;;;;;;9.00;5.60;;;;;;;22.25;70.06;98938.62;104918;1271;76581;-24
2022/08/05 05:10:02;;;;;;;8.90;5.90;;;;;;;22.34;69.16;98939.92;104659;1274;75723;-24
2022/08/05 05:12:30;;;;;;;9.30;5.80;;;;;;;22.54;69.13;98940.32;104767;1271;75392;-23
2022/08/05 05:14:58;;;;;;;7.40;5.50;;;;;;;22.77;68.24;98938.59;104661;1271;61120;-24
2022/08/05 05:17:38;;;;;;;7.30;6.40;;;;;;;22.45;69.25;98935.69;104799;1271;61262;-23
2022/08/05 05:20:23;;;;;;;12.90;7.00;;;;;;;22.46;69.22;98932.59;104425;1273;75895;-24
2022/08/05 05:22:59;;;;;;;8.20;6.60;;;;;;;22.18;70.48;98931.10;104805;1271;76928;-24
2022/08/05 05:25:34;;;;;;;9.30;6.20;;;;;;;22.03;71.19;98929.46;104704;1271;74775;-23
2022/08/05 05:28:08;;;;;;;13.10;6.60;;;;;;;22.58;69.43;98931.00;104785;1271;61216;-23
2022/08/05 05:30:36;;;;;;;9.40;5.20;;;;;;;22.84;68.77;98930.25;104638;1271;61845;-23
2022/08/05 05:33:04;;;;;;;8.60;5.40;;;;;;;23.01;68.24;98932.59;104681;1271;76563;-24
2022/08/05 05:35:44;;;;;;;8.10;6.30;;;;;;;22.84;67.93;98926.88;104651;1271;77101;-24
2022/08/05 05:38:11;;;;;;;8.70;5.70;;;;;;;22.51;69.41;98923.31;104687;1271;73891;-23
2022/08/05 05:40:41;;;;;;;8.20;5.80;;;;;;;23.39;67.09;98925.77;104698;1271;63090;-24
2022/08/05 05:43:18;;;;;;;5.50;5.00;;;;;;;23.70;65.91;98921.15;104604;1271;61105;-24
2022/08/05 05:46:06;;;;;;;7.00;6.00;;;;;;;23.64;65.77;98924.09;104627;1271;76315;-23
2022/08/05 05:48:42;;;;;;;14.50;6.60;;;;;;;23.11;67.02;98919.28;104926;1271;75974;-23
2022/08/05 05:51:10;;;;;;;6.80;5.70;;;;;;;23.41;67.22;98916.31;104818;1271;74368;-24
2022/08/05 05:53:42;;;;;;;10.90;5.80;;;;;;;22.95;67.95;98920.04;104613;1274;63141;-24
2022/08/05 05:56:28;;;;;;;7.00;6.20;;;;;;;22.98;68.10;98914.43;104793;1271;62822;-23
2022/08/05 05:59:02;;;;;;;16.40;5.70;;;;;;;23.35;67.02;98912.64;104950;1271;75274;-24
2022/08/05 06:01:37;;;;;;;7.80;5.60;;;;;;;23.61;66.72;98909.36;104705;1274;75964;-23
2022/08/05 06:04:06;;;;;;;8.80;5.10;;;;;;;23.72;66.16;98908.30;104654;1271;73092;-24
2022/08/05 06:06:42;;;;;;;4.30;3.90;;;;;;;23.78;66.55;98913.38;104602;1274;61243;-24
2022/08/05 06:09:15;;;;;;;4.60;4.00;;;;;;;24.45;64.64;98915.05;104674;1271;63053;-23
2022/08/05 06:11:53;;;;;;;5.60;4.40;;;;;;;24.84;62.54;98913.75;104643;1271;76928;-23
2022/08/05 06:14:31;;;;;;;10.20;6.30;;;;;;;24.51;62.80;98919.05;104649;1274;75645;-25
2022/08/05 06:17:00;;;;;;;6.30;4.60;;;;;;;23.95;64.16;98925.82;104418;1274;74072;-23
2022/08/05 06:19:48;;;;;;;7.70;4.50;;;;;;;23.99;64.53;98923.13;104683;1271;61153;-23
2022/08/05 06:22:27;;;;;;;7.40;5.50;;;;;;;24.40;63.57;98924.20;104704;1274;61843;-23
2022/08/05 06:24:54;;;;;;;25.40;6.50;;;;;;;24.56;64.71;98920.48;104662;1274;75289;-23
2022/08/05 06:27:22;;;;;;;6.90;5.10;;;;;;;24.66;64.41;98922.45;104834;1274;76009;-23
2022/08/05 06:30:14;;;;;;;9.20;5.60;;;;;;;24.71;64.11;98925.20;104844;1274;75544;-23
2022/08/05 06:32:47;;;;;;;7.10;4.80;;;;;;;24.76;64.38;98927.52;104819;1274;63156;-23
2022/08/05 06:35:16;;;;;;;8.30;5.60;;;;;;;24.67;63.65;98924.00;104763;1274;63370;-23
2022/08/05 06:38:04;;;;;;;7.70;5.40;;;;;;;24.61;63.69;98926.80;104709;1273;76364;-24
2022/08/05 06:40:39;;;;;;;8.80;5.50;;;;;;;24.52;64.42;98923.61;104658;1274;75033;-23
2022/08/05 06:43:11;;;;;;;6.70;4.70;;;;;;;24.27;65.32;98924.33;104617;1274;74081;-23
2022/08/05 06:45:58;;;;;;;14.40;5.80;;;;;;;24.23;65.20;98929.46;104659;1272;62995;-24
2022/08/05 06:48:33;;;;;;;8.10;5.90;;;;;;;24.27;65.13;98926.08;104783;1274;63078;-24
2022/08/05 06:51:21;;;;;;;6.90;5.20;;;;;;;24.23;65.66;98921.98;104757;1273;75682;-24
2022/08/05 06:54:01;;;;;;;6.10;5.40;;;;;;;24.30;64.96;98921.14;104414;1274;75850;-23
2022/08/05 06:56:29;;;;;;;12.40;4.80;;;;;;;24.46;64.55;98916.45;104620;1274;75389;-24
2022/08/05 06:59:04;;;;;;;8.30;4.90;;;;;;;24.72;64.14;98922.03;104568;1274;61966;-24
2022/08/05 07:01:37;;;;;;;5.80;4.60;;;;;;;24.96;63.62;98920.05;104628;1274;62820;-23
2022/08/05 07:04:08;;;;;;;6.40;5.50;;;;;;;24.93;62.96;98922.91;104629;1274;75444;-23
2022/08/05 07:06:35;;;;;;;5.90;4.70;;;;;;;24.93;63.32;98915.55;104796;1274;77062;-24
2022/08/05 07:09:03;;;;;;;6.70;4.80;;;;;;;25.05;63.02;98922.03;104602;1274;75186;-24
2022/08/05 07:11:34;;;;;;;5.90;4.90;;;;;;;25.20;62.27;98915.30;104737;1272;61173;-23
2022/08/05 07:17:02;;;;;;;6.70;5.30;;;;;;;25.05;62.04;98916.27;104633;1274;76389;-23
2022/08/05 07:19:52;;;;;;;11.10;5.60;;;;;;;24.80;60.76;98920.09;104698;1274;77179;-23
2022/08/05 07:22:39;;;;;;;16.50;5.30;;;;;;;24.87;62.41;98916.95;104739;1272;74316;-23
2022/08/05 07:25:08;;;;;;;6.70;5.30;;;;;;;25.09;60.09;98910.73;104712;1274;63074;-23
2022/08/05 07:27:56;;;;;;;5.40;4.40;;;;;;;24.62;60.40;98910.03;104408;1274;63070;-23
2022/08/05 07:30:36;;;;;;;8.60;4.60;;;;;;;24.99;59.47;98909.30;104624;1274;76960;-24
2022/08/05 07:33:07;;;;;;;8.30;4.80;;;;;;;25.09;59.10;98907.48;104764;1274;75857;-23
2022/08/05 07:35:41;;;;;;;14.90;5.50;;;;;;;24.90;58.87;98904.30;104635;1274;74302;-23
2022/08/05 07:38:29;;;;;;;4.30;3.90;;;;;;;25.01;57.80;98901.77;104706;1274;61782;-23
2022/08/05 07:41:06;;;;;;;6.50;4.50;;;;;;;25.36;57.76;98895.80;104656;1274;62577;-23
2022/08/05 07:43:54;;;;;;;6.90;5.20;;;;;;;24.93;57.31;98905.13;104778;1274;76669;-23
2022/08/05 07:46:27;;;;;;;5.00;4.10;;;;;;;25.43;56.80;98904.90;104626;1274;75314;-23
2022/08/05 07:48:55;;;;;;;7.20;5.90;;;;;;;25.81;55.99;98901.41;104666;1274;75436;-23
2022/08/05 07:51:32;;;;;;;5.80;4.30;;;;;;;26.05;55.62;98903.04;104740;1272;62050;-23
2022/08/05 07:54:14;;;;;;;4.80;4.40;;;;;;;26.33;55.13;98899.61;104852;1274;63012;-23
2022/08/05 07:56:45;;;;;;;4.50;4.00;;;;;;;26.39;54.06;98896.30;104688;1274;75181;-23
2022/08/05 07:59:32;;;;;;;5.50;4.20;;;;;;;26.62;53.54;98899.11;104622;1273;77120;-23
2022/08/05 08:02:09;;;;;;;4.70;3.80;;;;;;;27.05;51.84;98900.59;104687;1274;75504;-23
2022/08/05 08:04:45;;;;;;;7.60;6.70;;;;;;;26.91;50.76;98897.54;104642;1273;61176;-23
2022/08/05 08:07:13;;;;;;;8.60;7.10;;;;;;;26.00;52.74;98900.21;104681;1274;61141;-23
2022/08/05 08:09:43;;;;;;;9.10;5.40;;;;;;;26.04;53.74;98897.84;104925;1274;75562;-24
2022/08/05 08:12:14;;;;;;;;;;;;;;;26.29;53.97;98896.17;104715;1274;76106;-24
2022/08/05 08:15:01;;;;;;;5.30;4.70;;;;;;;26.48;53.20;98893.63;104719;1274;74500;-24
2022/08/05 08:17:31;;;;;;;12.50;8.00;;;;;;;26.30;53.00;98895.67;104780;1271;61203;-24
2022/08/05 08:20:02;;;;;;;62.90;9.80;;;;;;;26.32;52.42;98891.52;104423;1274;62860;-24
2022/08/05 08:22:58;;;;;;;7.40;5.20;;;;;;;26.58;53.01;98884.02;104747;1271;76297;-23
2022/08/05 08:25:29;;;;;;;9.00;6.00;;;;;;;26.89;53.20;98887.59;104689;1271;76139;-23
2022/08/05 08:28:16;;;;;;;4.10;3.70;;;;;;;26.55;52.51;98885.55;104748;1271;75625;-24
2022/08/05 08:31:06;;;;;;;15.60;5.00;;;;;;;26.85;52.13;98884.58;104967;1271;62830;-24
2022/08/05 08:33:33;;;;;;;7.60;5.50;;;;;;;27.24;52.25;98885.98;104716;1271;62933;-23
2022/08/05 08:36:06;;;;;;;7.50;4.60;;;;;;;27.37;51.55;98885.36;104839;1271;75492;-23
2022/08/05 08:38:54;;;;;;;6.20;4.60;;;;;;;27.12;51.82;98886.51;104632;1274;76959;-24
2022/08/05 08:41:23;;;;;;;6.30;4.60;;;;;;;27.31;51.70;98883.60;104631;1274;75545;-23
2022/08/05 08:44:11;;;;;;;5.40;4.80;;;;;;;26.80;51.94;98881.43;104642;1271;61122;-24
2022/08/05 08:46:59;;;;;;;6.80;3.90;;;;;;;27.40;50.02;98887.36;104873;1272;63038;-23
2022/08/05 08:49:26;;;;;;;5.00;4.20;;;;;;;27.84;49.51;98882.33;104716;1271;75438;-23
2022/08/05 08:52:18;;;;;;;4.60;4.00;;;;;;;28.42;48.56;98877.39;104690;1271;75687;-23
2022/08/05 08:54:46;;;;;;;4.60;4.10;;;;;;;28.16;48.58;98872.11;104588;1271;75367;-24
2022/08/05 08:57:15;;;;;;;10.10;4.40;;;;;;;27.23;50.06;98874.05;104730;1271;63198;-24
2022/08/05 08:59:43;;;;;;;10.00;8.80;;;;;;;27.23;50.44;98878.54;104702;1271;63048;-24
2022/08/05 09:02:17;;;;;;;7.60;5.00;;;;;;;28.12;49.02;98872.14;104681;1274;76648;-23
2022/08/05 09:04:45;;;;;;;5.00;4.50;;;;;;;28.05;47.50;98872.19;104711;1271;75924;-23
2022/08/05 09:07:33;;;;;;;5.70;4.40;;;;;;;27.09;49.24;98867.85;104670;1274;75585;-24
2022/08/05 09:10:22;;;;;;;4.40;3.90;;;;;;;27.56;48.87;98866.77;104714;1271;63426;-24
2022/08/05 09:12:55;;;;;;;8.90;6.80;;;;;;;27.75;48.88;98868.59;104626;1271;62928;-23
2022/08/05 09:15:31;;;;;;;5.20;4.70;;;;;;;27.50;49.86;98869.73;104694;1271;76621;-24
2022/08/05 09:18:06;;;;;;;6.60;6.00;;;;;;;26.33;51.51;98865.38;104789;1271;75947;-24
2022/08/05 09:20:36;;;;;;;7.40;5.70;;;;;;;26.22;52.62;98868.65;104648;1271;74897;-24
2022/08/05 09:23:22;;;;;;;5.90;4.30;;;;;;;25.89;53.82;98869.52;104710;1271;61159;-23
2022/08/05 09:26:11;;;;;;;8.20;5.30;;;;;;;26.24;53.45;98870.30;104552;1274;61171;-23
2022/08/05 09:28:48;;;;;;;14.50;6.30;;;;;;;26.84;52.16;98867.63;104729;1271;76518;-24
2022/08/05 09:31:16;;;;;;;14.50;9.20;;;;;;;27.04;51.13;98867.27;104753;1271;77004;-24
2022/08/05 09:34:05;;;;;;;10.80;7.60;;;;;;;26.73;51.41;98867.55;104872;1271;75125;-23
2022/08/05 09:36:41;;;;;;;32.60;29.60;;;;;;;27.07;50.14;98865.58;104637;1271;61803;-23
2022/08/05 09:39:23;;;;;;;6.30;5.60;;;;;;;27.24;50.36;98867.13;104761;1271;62804;-24
2022/08/05 09:42:11;;;;;;;5.20;4.20;;;;;;;27.64;49.82;98867.46;104793;1271;76287;-24
2022/08/05 09:44:54;;;;;;;17.10;15.10;;;;;;;27.51;50.36;98871.19;104805;1274;76743;-24
2022/08/05 09:47:42;;;;;;;19.20;16.80;;;;;;;26.88;52.22;98874.79;104641;1271;75520;-23
2022/08/05 09:50:33;;;;;;;6.50;5.10;;;;;;;26.92;52.47;98872.71;104697;1274;62811;-23
2022/08/05 09:53:10;;;;;;;6.60;5.90;;;;;;;27.57;51.33;98875.25;104739;1271;63019;-23
2022/08/05 09:55:57;;;;;;;5.70;5.10;;;;;;;27.67;50.70;98870.02;104787;1271;76577;-24
2022/08/05 09:58:38;;;;;;;5.40;4.10;;;;;;;28.44;48.43;98863.73;104751;1271;77042;-24
2022/08/05 10:01:11;;;;;;;4.10;3.60;;;;;;;29.20;46.95;98860.64;104705;1272;74310;-24
2022/08/05 10:03:58;;;;;;;4.00;3.60;;;;;;;29.66;46.23;98857.66;104578;1274;61562;-24
2022/08/05 10:06:26;;;;;;;4.20;3.80;;;;;;;29.70;45.93;98862.30;104598;1274;61663;-24
2022/08/05 10:08:55;;;;;;;14.80;12.60;;;;;;;29.34;46.59;98854.47;104778;1274;76602;-24
2022/08/05 10:11:22;;;;;;;6.00;5.00;;;;;;;28.08;49.04;98857.77;104669;1271;77096;-24
2022/08/05 10:13:57;;;;;;;12.30;11.10;;;;;;;27.71;49.64;98866.87;104715;1271;75466;-24
2022/08/05 10:16:35;;;;;;;10.20;7.90;;;;;;;26.99;51.54;98872.05;104621;1271;61985;-24
2022/08/05 10:19:18;;;;;;;5.60;4.40;;;;;;;27.15;51.52;98873.16;104429;1271;61853;-24
2022/08/05 10:21:58;;;;;;;11.70;4.70;;;;;;;27.35;51.81;98873.19;104614;1274;76682;-23
2022/08/05 10:24:25;;;;;;;6.80;4.20;;;;;;;27.13;52.88;98872.09;104770;1271;75957;-23
2022/08/05 10:26:55;;;;;;;5.90;4.50;;;;;;;27.55;51.97;98872.54;104696;1271;74107;-24
2022/08/05 10:29:28;;;;;;;5.80;4.40;;;;;;;27.59;51.86;98867.64;104953;1271;63569;-23
2022/08/05 10:32:16;;;;;;;6.40;4.00;;;;;;;28.58;49.98;98863.61;104832;1271;61946;-23
2022/08/05 10:35:03;;;;;;;6.20;4.00;;;;;;;29.51;46.67;98862.99;104858;1271;76483;-24
2022/08/05 10:37:35;;;;;;;8.20;4.90;;;;;;;29.73;45.32;98856.47;104596;1271;75633;-24
2022/08/05 10:40:20;;;;;;;13.60;10.20;;;;;;;28.80;48.25;98862.50;104609;1271;74163;-24
2022/08/05 10:42:57;;;;;;;15.20;13.30;;;;;;;27.28;49.88;98861.40;104783;1271;63071;-24
2022/08/05 10:45:26;;;;;;;6.90;4.90;;;;;;;27.26;50.71;98865.17;104727;1271;61178;-25
2022/08/05 10:48:33;;;;;;;5.60;4.80;;;;;;;28.19;48.77;98863.20;104574;1274;75564;-24
2022/08/05 10:51:20;;;;;;;7.20;6.50;;;;;;;27.93;49.37;98859.91;104842;1271;76996;-24
2022/08/05 10:54:01;;;;;;;6.00;4.00;;;;;;;28.10;48.51;98860.36;104464;1274;75328;-24
2022/08/05 10:56:54;;;;;;;7.50;5.10;;;;;;;28.37;47.95;98863.11;104923;1271;61051;-25
2022/08/05 10:59:30;;;;;;;18.00;10.10;;;;;;;28.90;47.55;98859.98;104758;1271;63061;-25
2022/08/05 11:02:17;;;;;;;9.30;4.40;;;;;;;29.07;46.94;98859.11;104783;1271;76557;-24
2022/08/05 11:05:08;;;;;;;7.20;4.60;;;;;;;29.70;45.62;98861.50;104893;1274;76974;-24
2022/08/05 11:07:59;;;;;;;5.70;4.50;;;;;;;29.81;44.25;98856.00;104636;1272;75107;-24
2022/08/05 11:10:33;;;;;;;4.30;3.90;;;;;;;29.59;45.38;98855.96;104613;1274;63142;-24
2022/08/05 11:13:04;;;;;;;7.50;4.50;;;;;;;30.05;44.86;98851.89;105094;1274;62891;-24
2022/08/05 11:15:40;;;;;;;5.00;4.50;;;;;;;30.20;44.15;98854.90;104809;1274;75551;-24
2022/08/05 11:18:27;;;;;;;4.60;3.90;;;;;;;29.81;44.65;98855.30;104659;1274;77125;-24
2022/08/05 11:20:58;;;;;;;5.20;4.70;;;;;;;29.66;44.86;98855.72;104949;1274;75249;-24
2022/08/05 11:23:33;;;;;;;4.80;4.30;;;;;;;29.35;46.23;98858.31;105063;1274;62012;-28
2022/08/05 11:26:21;;;;;;;4.60;4.20;;;;;;;28.06;47.86;98857.52;104841;1274;62773;-24
2022/08/05 11:29:00;;;;;;;5.20;4.70;;;;;;;28.70;47.02;98861.58;104732;1273;75717;-24
2022/08/05 11:31:40;;;;;;;5.90;4.20;;;;;;;29.14;46.54;98856.35;104844;1274;76812;-24
2022/08/05 11:34:36;;;;;;;5.30;4.10;;;;;;;29.45;45.38;98860.91;105042;1274;75555;-24
2022/08/05 11:37:04;;;;;;;5.70;3.90;;;;;;;29.34;45.27;98856.81;104754;1274;61086;-24
2022/08/05 11:39:51;;;;;;;4.50;4.00;;;;;;;28.97;45.02;98859.50;104786;1274;61661;-24
2022/08/05 11:42:31;;;;;;;9.20;8.10;;;;;;;28.41;46.51;98860.39;105020;1274;76400;-26
2022/08/05 11:45:04;;;;;;;5.30;4.80;;;;;;;27.47;48.99;98861.20;104378;1274;76517;-24
2022/08/05 11:47:49;;;;;;;6.50;5.30;;;;;;;27.80;47.92;98863.16;104616;1273;75240;-25
2022/08/05 11:50:22;;;;;;;13.60;10.70;;;;;;;27.82;48.31;98866.21;104692;1274;61153;-25
2022/08/05 11:52:51;;;;;;;12.20;8.40;;;;;;;27.75;48.69;98866.05;104666;1273;63067;-24
2022/08/05 11:55:23;;;;;;;6.10;4.40;;;;;;;27.66;48.32;98867.66;104396;1274;76589;-24
2022/08/05 11:58:02;;;;;;;6.30;5.00;;;;;;;27.68;48.38;98871.17;104689;1274;77020;-24
2022/08/05 12:00:38;;;;;;;8.70;4.80;;;;;;;28.03;48.31;98865.67;104706;1274;74105;-24
2022/08/05 12:03:28;;;;;;;8.40;5.00;;;;;;;27.54;48.75;98866.06;104870;1274;63159;-24
2022/08/05 12:06:00;;;;;;;8.10;6.90;;;;;;;27.12;49.12;98867.55;104690;1274;62075;-24
2022/08/05 12:08:27;;;;;;;8.60;5.70;;;;;;;26.80;49.90;98865.30;104625;1275;76329;-24
2022/08/05 12:11:01;;;;;;;31.10;5.30;;;;;;;27.06;49.31;98870.48;104765;1274;77118;-24